Time;durP1;ratioP1;P1;durP2;ratioP2;P2;SDS_P1;SDS_P2;PMS_P1;PMS_P2;Temp;Humidity;BMP_temperature;BMP_pressure;BME280_temperature;BME280_humidity;BME280_pressure;Samples;Min_cycle;Max_cycle;Signal;HPM_P1;HPM_P2
2022/09/12 00:01:19;;;;;;;10.00;4.45;;;;;;;12.45;57.80;99681.09;5057465;28;20468;-42
2022/09/12 00:03:45;;;;;;;7.07;4.72;;;;;;;12.47;58.88;99682.72;5067279;28;20535;-44
2022/09/12 00:06:28;;;;;;;7.43;4.40;;;;;;;12.47;59.50;99680.13;5056488;28;20041;-46
2022/09/12 00:08:56;;;;;;;8.82;5.00;;;;;;;12.45;60.34;99683.72;5054809;28;20514;-48
2022/09/12 00:11:22;;;;;;;10.05;4.90;;;;;;;12.44;60.82;99685.47;5075825;28;20052;-48
2022/09/12 00:13:48;;;;;;;8.43;4.50;;;;;;;12.41;60.48;99685.59;5063074;28;20040;-41
2022/09/12 00:16:22;;;;;;;8.52;4.95;;;;;;;12.30;60.70;99693.84;5059855;28;20033;-42
2022/09/12 00:18:48;;;;;;;6.57;4.05;;;;;;;12.12;61.09;99673.75;5067889;28;20051;-43
2022/09/12 00:21:15;;;;;;;8.30;3.85;;;;;;;12.08;61.71;99681.78;5070091;28;20163;-42
2022/09/12 00:23:41;;;;;;;7.38;4.00;;;;;;;12.04;62.40;99680.19;5063670;28;20871;-44
2022/09/12 00:26:07;;;;;;;6.95;3.38;;;;;;;11.96;62.62;99677.03;5069684;28;20074;-46
2022/09/12 00:28:35;;;;;;;10.30;3.80;;;;;;;11.76;63.00;99647.44;5067509;28;20040;-43
2022/09/12 00:31:05;;;;;;;6.22;4.03;;;;;;;11.82;63.65;99662.81;5067077;28;20036;-45
2022/09/12 00:33:31;;;;;;;10.38;3.85;;;;;;;11.79;63.83;99670.75;5066849;28;20044;-43
2022/09/12 00:35:57;;;;;;;6.82;3.85;;;;;;;11.73;64.32;99668.38;5070074;28;20409;-43
2022/09/12 00:38:23;;;;;;;7.65;4.57;;;;;;;11.67;64.77;99649.53;5068974;28;20106;-41
2022/09/12 00:40:48;;;;;;;6.82;4.15;;;;;;;11.70;64.60;99663.28;5069104;28;20041;-43
2022/09/12 00:43:34;;;;;;;6.30;3.90;;;;;;;11.71;65.23;99659.75;5067963;28;20254;-43
2022/09/12 00:46:23;;;;;;;8.65;4.22;;;;;;;11.77;65.34;99661.31;5061310;28;20036;-42
2022/09/12 00:49:03;;;;;;;5.75;3.90;;;;;;;11.72;65.63;99643.19;5060810;28;20048;-41
2022/09/12 00:51:31;;;;;;;6.68;4.05;;;;;;;11.80;66.01;99655.97;5068908;28;20428;-42
2022/09/12 00:53:59;;;;;;;10.07;4.63;;;;;;;11.78;65.99;99662.97;5069026;28;20511;-49
2022/09/12 00:56:26;;;;;;;8.63;3.97;;;;;;;11.72;65.85;99655.41;5067135;28;20583;-43
2022/09/12 00:58:57;;;;;;;8.00;3.88;;;;;;;11.78;66.45;99652.56;5058686;28;20343;-42
2022/09/12 01:01:23;;;;;;;8.95;4.18;;;;;;;11.82;66.79;99651.56;5067350;28;20064;-43
2022/09/12 01:03:49;;;;;;;6.43;4.03;;;;;;;11.83;66.79;99650.63;5068329;28;20086;-46
2022/09/12 01:06:18;;;;;;;6.25;3.92;;;;;;;11.85;67.78;99651.41;5053299;28;20036;-43
2022/09/12 01:08:46;;;;;;;8.68;4.32;;;;;;;11.84;67.81;99654.94;5052214;28;20040;-43
2022/09/12 01:11:12;;;;;;;7.93;4.32;;;;;;;11.79;68.30;99649.91;5068684;28;20044;-42
2022/09/12 01:13:38;;;;;;;6.70;4.15;;;;;;;11.82;67.95;99651.56;5067598;28;20040;-45
2022/09/12 01:16:05;;;;;;;8.38;4.70;;;;;;;11.81;67.95;99647.25;5063492;28;20597;-43
2022/09/12 01:18:56;;;;;;;10.57;4.63;;;;;;;11.84;67.95;99642.75;5047949;28;20109;-43
2022/09/12 01:21:37;;;;;;;8.05;4.65;;;;;;;11.87;68.41;99647.00;5053572;28;20051;-41
2022/09/12 01:24:32;;;;;;;6.10;4.25;;;;;;;11.88;68.71;99635.66;5066254;28;20036;-41
2022/09/12 01:27:22;;;;;;;10.30;5.20;;;;;;;11.85;68.58;99639.25;5049103;28;20045;-43
2022/09/12 01:30:00;;;;;;;7.07;4.60;;;;;;;11.84;68.45;99631.47;5066764;28;20040;-42
2022/09/12 01:32:54;;;;;;;10.50;4.90;;;;;;;11.77;68.74;99637.88;5064283;28;20401;-44
2022/09/12 01:35:48;;;;;;;7.78;4.40;;;;;;;11.66;69.46;99635.66;5054784;28;20157;-45
2022/09/12 01:38:35;;;;;;;9.93;4.65;;;;;;;11.61;69.62;99640.19;5061705;28;20028;-45
2022/09/12 01:41:08;;;;;;;5.65;3.72;;;;;;;11.53;70.01;99644.00;5052456;28;20125;-43
2022/09/12 01:43:44;;;;;;;7.85;4.22;;;;;;;11.46;70.16;99644.22;5068249;28;20119;-43
2022/09/12 01:46:35;;;;;;;9.10;4.05;;;;;;;11.42;70.58;99642.66;5049498;28;20041;-43
2022/09/12 01:49:17;;;;;;;6.50;4.05;;;;;;;11.38;70.58;99646.28;5062906;28;20052;-42
2022/09/12 01:52:26;;;;;;;7.47;4.35;;;;;;;11.41;70.92;99643.56;5047801;28;20037;-41
2022/09/12 01:55:05;;;;;;;10.20;3.85;;;;;;;11.32;71.13;99636.09;5049344;28;20141;-45
2022/09/12 01:57:44;;;;;;;5.43;3.88;;;;;;;11.35;71.37;99643.81;5065203;28;20159;-42
2022/09/12 02:00:11;;;;;;;7.60;3.78;;;;;;;11.33;71.20;99645.63;5048439;28;20070;-43
2022/09/12 02:02:49;;;;;;;7.35;4.10;;;;;;;11.33;71.73;99642.16;5066864;28;20044;-43
2022/09/12 02:05:31;;;;;;;7.30;4.07;;;;;;;11.22;71.26;99618.28;5050760;28;20041;-46
2022/09/12 02:08:37;;;;;;;6.10;4.10;;;;;;;11.48;71.40;99638.97;5040881;28;20431;-43
2022/09/12 02:11:06;;;;;;;5.97;4.07;;;;;;;11.55;71.05;99642.19;5017420;28;20048;-43
2022/09/12 02:13:56;;;;;;;7.55;3.97;;;;;;;11.61;71.39;99634.13;5063868;28;20154;-45
2022/09/12 02:16:32;;;;;;;6.68;3.78;;;;;;;11.65;71.81;99635.72;5062929;28;20032;-42
2022/09/12 02:19:06;;;;;;;10.73;4.55;;;;;;;11.72;71.73;99639.78;5056185;28;20045;-41
2022/09/12 02:21:32;;;;;;;7.65;4.40;;;;;;;11.77;71.10;99645.69;5071281;28;20436;-42
2022/09/12 02:24:01;;;;;;;6.60;4.20;;;;;;;11.78;71.15;99637.78;5069881;28;20105;-44
2022/09/12 02:26:34;;;;;;;7.50;4.00;;;;;;;11.82;71.71;99641.13;5052375;28;20037;-44
2022/09/12 02:29:00;;;;;;;8.00;4.20;;;;;;;11.83;71.76;99629.78;5067143;28;20033;-42
2022/09/12 02:31:32;;;;;;;7.15;4.43;;;;;;;11.83;71.66;99629.78;5055889;28;20457;-43
2022/09/12 02:34:38;;;;;;;6.63;4.30;;;;;;;11.84;72.62;99628.88;5069779;28;20044;-42
2022/09/12 02:37:24;;;;;;;8.73;4.70;;;;;;;11.84;72.56;99636.69;5067002;28;20094;-47
2022/09/12 02:39:56;;;;;;;9.38;5.03;;;;;;;11.82;72.24;99628.13;5057989;28;20044;-44
2022/09/12 02:42:23;;;;;;;8.02;5.28;;;;;;;11.71;72.22;99615.50;5060749;28;20156;-44
2022/09/12 02:44:50;;;;;;;10.35;5.90;;;;;;;11.83;72.26;99635.00;5072403;28;20539;-43
2022/09/12 02:47:21;;;;;;;11.15;6.15;;;;;;;11.82;72.18;99628.97;5069956;28;20068;-42
2022/09/12 02:49:47;;;;;;;8.57;5.88;;;;;;;11.86;72.13;99635.75;5065824;28;20535;-41
2022/09/12 02:52:14;;;;;;;9.52;5.97;;;;;;;11.85;71.97;99622.75;5060472;28;20545;-42
2022/09/12 02:54:40;;;;;;;11.50;6.03;;;;;;;11.88;72.07;99627.84;5060173;28;20055;-41
2022/09/12 02:57:15;;;;;;;8.88;6.07;;;;;;;11.92;72.01;99631.19;5052148;28;20531;-42
2022/09/12 02:59:41;;;;;;;11.90;6.53;;;;;;;11.88;72.36;99625.22;5068833;28;20048;-46
2022/09/12 03:02:07;;;;;;;10.52;5.60;;;;;;;11.94;71.70;99635.41;5058969;28;20051;-43
2022/09/12 03:04:51;;;;;;;14.02;6.00;;;;;;;11.93;72.01;99636.34;5062504;28;20036;-42
2022/09/12 03:07:42;;;;;;;10.60;6.50;;;;;;;11.92;71.77;99632.03;5051932;28;20155;-43
2022/09/12 03:10:18;;;;;;;11.63;6.90;;;;;;;11.92;72.15;99641.59;5069432;28;20040;-47
2022/09/12 03:13:02;;;;;;;11.98;6.82;;;;;;;11.89;72.19;99637.34;5067085;28;20037;-42
2022/09/12 03:15:31;;;;;;;11.95;6.75;;;;;;;11.86;71.72;99638.34;5058620;28;20043;-44
2022/09/12 03:18:13;;;;;;;12.10;7.28;;;;;;;11.87;71.77;99636.59;5052806;28;20041;-42
2022/09/12 03:20:51;;;;;;;11.93;7.38;;;;;;;11.85;71.85;99638.41;5066823;28;20040;-41
2022/09/12 03:23:43;;;;;;;14.85;6.53;;;;;;;11.85;71.94;99641.00;5068579;28;20033;-42
2022/09/12 03:26:16;;;;;;;14.43;7.57;;;;;;;11.80;72.02;99635.97;5064893;28;20504;-49
2022/09/12 03:28:44;;;;;;;11.95;6.82;;;;;;;11.78;72.27;99635.19;5051743;28;20527;-41
2022/09/12 03:31:17;;;;;;;13.68;7.88;;;;;;;11.78;72.70;99640.38;5068645;28;20040;-46
2022/09/12 03:33:44;;;;;;;15.18;8.13;;;;;;;11.81;72.49;99648.09;5051416;28;20053;-46
2022/09/12 03:36:23;;;;;;;14.45;7.50;;;;;;;11.67;72.65;99626.09;5070803;28;20130;-43
2022/09/12 03:38:49;;;;;;;13.48;7.68;;;;;;;11.77;72.69;99640.47;5069348;28;20056;-44
2022/09/12 03:41:15;;;;;;;18.55;8.15;;;;;;;11.78;73.25;99648.19;5050036;28;20098;-42
2022/09/12 03:43:41;;;;;;;11.88;7.40;;;;;;;11.79;73.41;99647.31;5060827;28;20046;-45
2022/09/12 03:46:07;;;;;;;14.32;7.57;;;;;;;11.80;72.72;99643.78;5069898;28;20512;-44
2022/09/12 03:48:32;;;;;;;16.30;8.05;;;;;;;11.80;73.33;99646.41;5070490;28;20050;-44
2022/09/12 03:51:02;;;;;;;20.05;8.50;;;;;;;11.80;73.57;99640.34;5067978;28;20040;-42
2022/09/12 03:53:29;;;;;;;14.52;7.90;;;;;;;11.80;74.00;99641.19;5062205;28;20049;-42
2022/09/12 03:55:55;;;;;;;14.00;8.45;;;;;;;11.82;73.34;99641.13;5065684;28;20079;-42
2022/09/12 03:58:21;;;;;;;15.50;8.77;;;;;;;11.82;73.46;99647.19;5064545;28;20678;-41
2022/09/12 04:00:47;;;;;;;14.98;8.50;;;;;;;11.83;73.53;99651.47;5069783;28;20051;-42
2022/09/12 04:03:13;;;;;;;19.45;8.90;;;;;;;11.83;73.96;99643.66;5060660;28;20040;-44
2022/09/12 04:05:39;;;;;;;16.33;9.07;;;;;;;11.85;73.80;99641.84;5066559;28;20048;-45
2022/09/12 04:08:05;;;;;;;15.70;9.43;;;;;;;11.86;74.01;99642.69;5086248;28;20197;-46
2022/09/12 04:10:31;;;;;;;22.05;10.10;;;;;;;11.71;74.03;99610.28;5053163;28;20129;-43
2022/09/12 04:12:57;;;;;;;17.92;9.95;;;;;;;11.89;74.18;99642.56;5067686;28;20081;-43
2022/09/12 04:15:23;;;;;;;15.13;10.35;;;;;;;11.87;74.33;99640.03;5069280;28;20462;-44
2022/09/12 04:17:49;;;;;;;17.25;10.73;;;;;;;11.86;74.39;99640.94;5070326;28;20036;-44
2022/09/12 04:20:15;;;;;;;17.05;10.52;;;;;;;11.86;74.29;99635.75;5070561;28;20044;-43
2022/09/12 04:22:41;;;;;;;17.23;11.02;;;;;;;11.86;74.81;99637.50;5070308;28;20041;-43
2022/09/12 04:25:08;;;;;;;16.83;10.23;;;;;;;11.86;74.71;99638.34;5070335;28;20504;-42
2022/09/12 04:27:34;;;;;;;18.17;10.38;;;;;;;11.86;74.91;99643.56;5071017;28;20052;-43
2022/09/12 04:30:01;;;;;;;15.98;10.30;;;;;;;11.88;74.77;99643.47;5062629;28;20036;-44
2022/09/12 04:32:30;;;;;;;20.88;10.45;;;;;;;11.82;74.86;99633.31;5070069;28;20044;-44
2022/09/12 04:34:56;;;;;;;21.15;10.82;;;;;;;11.85;74.83;99638.41;5052515;28;20135;-47
2022/09/12 04:37:23;;;;;;;16.38;10.23;;;;;;;11.85;75.64;99647.06;5070001;28;20041;-46
2022/09/12 04:39:50;;;;;;;17.92;9.90;;;;;;;11.86;75.33;99640.09;5068319;28;20045;-43
2022/09/12 04:42:16;;;;;;;17.13;9.85;;;;;;;11.83;75.73;99635.84;5069880;28;20078;-43
2022/09/12 04:44:42;;;;;;;16.25;10.00;;;;;;;11.82;75.79;99644.59;5074090;28;20043;-43
2022/09/12 04:47:09;;;;;;;15.55;9.68;;;;;;;11.80;75.55;99640.34;5068706;28;20416;-43
2022/09/12 04:49:35;;;;;;;16.23;10.48;;;;;;;11.79;75.70;99638.63;5069413;28;20888;-45
2022/09/12 04:52:01;;;;;;;16.48;10.48;;;;;;;11.80;75.64;99648.16;5069774;28;20036;-47
2022/09/12 04:54:26;;;;;;;18.08;9.73;;;;;;;11.78;75.35;99648.19;5067732;28;20048;-43
2022/09/12 04:56:54;;;;;;;16.80;9.82;;;;;;;11.80;75.68;99654.22;5053065;28;20040;-43
2022/09/12 04:59:20;;;;;;;26.55;10.18;;;;;;;11.79;76.36;99647.31;5064032;28;20055;-42
2022/09/12 05:01:47;;;;;;;17.02;10.05;;;;;;;11.82;76.60;99649.81;5067381;28;20036;-42
2022/09/12 05:04:13;;;;;;;15.00;9.52;;;;;;;11.84;76.51;99649.72;5060843;28;20029;-45
2022/09/12 05:06:40;;;;;;;19.25;11.25;;;;;;;11.86;76.08;99647.91;5065282;28;20128;-45
2022/09/12 05:09:10;;;;;;;27.80;17.75;;;;;;;11.75;76.67;99631.84;5063590;28;20075;-41
2022/09/12 05:11:38;;;;;;;23.77;15.60;;;;;;;11.91;77.03;99651.19;5051509;28;20697;-47
2022/09/12 05:14:04;;;;;;;15.45;9.88;;;;;;;11.93;76.69;99651.97;5068898;28;20060;-43
2022/09/12 05:16:31;;;;;;;19.15;10.52;;;;;;;11.96;77.23;99651.84;5068080;28;20519;-45
2022/09/12 05:18:58;;;;;;;18.77;12.68;;;;;;;11.98;77.46;99650.03;5070544;28;20032;-45
2022/09/12 05:21:25;;;;;;;16.95;9.63;;;;;;;12.03;77.04;99653.31;5068634;28;20447;-43
2022/09/12 05:23:52;;;;;;;18.27;10.35;;;;;;;12.07;76.99;99649.66;5060984;28;20081;-45
2022/09/12 05:26:20;;;;;;;20.05;11.40;;;;;;;12.11;76.71;99651.22;5074985;28;20101;-46
2022/09/12 05:28:47;;;;;;;17.58;9.18;;;;;;;12.12;76.60;99650.31;5082321;28;20126;-43
2022/09/12 05:31:15;;;;;;;15.35;9.68;;;;;;;12.01;76.40;99636.00;5069158;28;20119;-45
2022/09/12 05:33:43;;;;;;;19.30;9.85;;;;;;;12.14;76.87;99653.69;5067526;28;20664;-47
2022/09/12 05:36:14;;;;;;;18.65;10.05;;;;;;;12.00;76.76;99629.94;5069758;28;20044;-42
2022/09/12 05:38:40;;;;;;;17.85;9.25;;;;;;;12.16;77.26;99638.84;5064728;28;20507;-46
2022/09/12 05:41:08;;;;;;;15.00;9.07;;;;;;;12.25;76.89;99645.41;5053833;28;20060;-45
2022/09/12 05:43:35;;;;;;;14.48;8.65;;;;;;;12.30;76.34;99643.47;5053233;28;20078;-41
2022/09/12 05:46:07;;;;;;;18.00;8.95;;;;;;;12.33;76.26;99648.56;5069900;28;20798;-44
2022/09/12 05:48:35;;;;;;;22.02;11.38;;;;;;;12.36;76.03;99640.59;5068785;28;20055;-45
2022/09/12 05:51:05;;;;;;;17.88;10.30;;;;;;;12.39;75.89;99645.72;5077073;28;20035;-45
2022/09/12 05:53:32;;;;;;;20.00;9.55;;;;;;;12.45;75.84;99648.06;5073868;28;20044;-49
2022/09/12 05:56:04;;;;;;;14.13;8.82;;;;;;;12.50;75.82;99643.50;5067476;28;20090;-48
2022/09/12 05:58:30;;;;;;;15.57;8.82;;;;;;;12.55;75.38;99649.38;5067550;28;20428;-48
2022/09/12 06:01:06;;;;;;;14.35;8.90;;;;;;;12.44;75.42;99622.91;5068685;28;20040;-48
2022/09/12 06:03:32;;;;;;;11.88;9.05;;;;;;;12.63;75.35;99635.97;5052654;28;20037;-46
2022/09/12 06:06:02;;;;;;;18.08;10.88;;;;;;;12.66;74.89;99641.94;5057575;28;20080;-44
2022/09/12 06:08:29;;;;;;;15.02;9.60;;;;;;;12.59;74.68;99618.78;5062571;28;20076;-45
2022/09/12 06:11:01;;;;;;;16.70;8.48;;;;;;;12.56;74.49;99609.31;5063704;28;20414;-49
2022/09/12 06:13:27;;;;;;;13.60;8.43;;;;;;;12.61;74.42;99615.16;5067572;28;20032;-46
2022/09/12 06:15:53;;;;;;;14.35;8.55;;;;;;;12.80;74.83;99643.06;5063119;28;20045;-42
2022/09/12 06:18:20;;;;;;;11.70;7.55;;;;;;;12.68;74.80;99614.00;5070002;28;20086;-42
2022/09/12 06:20:45;;;;;;;15.70;8.95;;;;;;;12.74;74.43;99618.94;5067723;28;20044;-47
2022/09/12 06:23:11;;;;;;;13.52;8.35;;;;;;;12.75;74.56;99609.38;5066572;28;20542;-46
2022/09/12 06:25:37;;;;;;;13.05;8.63;;;;;;;12.95;74.29;99626.72;5067159;28;20048;-43
2022/09/12 06:28:03;;;;;;;12.57;8.30;;;;;;;12.99;73.89;99633.50;5065270;28;20044;-44
2022/09/12 06:30:29;;;;;;;12.32;7.88;;;;;;;12.88;74.11;99620.09;5065282;28;20455;-44
2022/09/12 06:32:58;;;;;;;14.95;8.23;;;;;;;13.04;74.08;99634.97;5066351;28;20041;-42
2022/09/12 06:35:24;;;;;;;13.13;7.88;;;;;;;13.13;73.89;99633.78;5066971;28;20044;-58
2022/09/12 06:37:50;;;;;;;18.30;8.38;;;;;;;13.04;73.89;99615.88;5061749;28;20131;-46
2022/09/12 06:40:43;;;;;;;16.58;8.73;;;;;;;13.13;73.50;99618.97;5064331;28;20040;-49
2022/09/12 06:43:12;;;;;;;13.68;7.80;;;;;;;13.31;73.18;99634.69;5050167;28;20050;-45
2022/09/12 06:45:38;;;;;;;10.70;7.90;;;;;;;13.38;72.92;99642.16;5067219;28;20040;-44
2022/09/12 06:48:04;;;;;;;14.90;7.85;;;;;;;13.48;72.34;99637.34;5067853;28;20032;-50
2022/09/12 06:50:30;;;;;;;15.40;7.38;;;;;;;13.61;72.48;99635.84;5068046;28;20055;-50
2022/09/12 06:52:56;;;;;;;10.80;7.28;;;;;;;13.77;71.62;99644.66;5066146;28;20547;-51
2022/09/12 06:55:23;;;;;;;10.80;7.50;;;;;;;13.73;71.54;99621.34;5065491;28;20048;-46
2022/09/12 06:57:51;;;;;;;11.68;7.22;;;;;;;13.85;71.33;99645.16;5046524;28;20171;-46
2022/09/12 07:00:17;;;;;;;14.57;9.52;;;;;;;13.87;71.15;99642.47;5062668;28;20036;-51
2022/09/12 07:02:42;;;;;;;11.68;7.00;;;;;;;13.92;70.77;99640.47;5070055;28;20051;-51
2022/09/12 07:05:09;;;;;;;11.15;8.02;;;;;;;14.00;70.36;99647.00;5069860;28;20063;-47
2022/09/12 07:07:36;;;;;;;14.32;7.70;;;;;;;14.13;70.08;99638.56;5069704;28;20079;-51
2022/09/12 07:10:02;;;;;;;11.05;7.53;;;;;;;14.23;69.65;99643.28;5061736;28;20048;-49
2022/09/12 07:12:29;;;;;;;12.75;7.13;;;;;;;14.27;69.57;99636.97;5080227;28;20055;-49
2022/09/12 07:14:55;;;;;;;11.00;7.18;;;;;;;14.27;69.60;99636.13;5063649;28;20072;-51
2022/09/12 07:17:21;;;;;;;11.73;6.70;;;;;;;14.28;69.18;99637.81;5069130;28;20044;-53
2022/09/12 07:19:47;;;;;;;11.02;6.95;;;;;;;14.26;68.64;99635.25;5068443;28;20090;-49
2022/09/12 07:22:13;;;;;;;12.18;6.70;;;;;;;14.26;69.00;99634.41;5067879;28;20146;-54
2022/09/12 07:24:40;;;;;;;13.80;6.82;;;;;;;14.34;68.45;99638.31;5071616;28;20040;-49
2022/09/12 07:27:05;;;;;;;9.02;5.57;;;;;;;14.49;68.05;99643.75;5066892;28;20039;-51
2022/09/12 07:29:31;;;;;;;11.00;6.28;;;;;;;14.55;67.26;99625.13;5054833;28;20044;-54
2022/09/12 07:31:58;;;;;;;9.65;6.53;;;;;;;14.77;66.82;99639.63;5069474;28;20064;-52
2022/09/12 07:34:24;;;;;;;10.77;6.40;;;;;;;14.95;66.34;99644.84;5091493;28;20120;-52
2022/09/12 07:36:50;;;;;;;8.25;5.00;;;;;;;15.06;65.82;99650.34;5086470;28;20079;-52
2022/09/12 07:39:16;;;;;;;9.50;5.57;;;;;;;15.23;64.88;99648.50;5071241;28;20052;-49
2022/09/12 07:41:42;;;;;;;10.45;5.50;;;;;;;15.46;64.51;99654.28;5070703;28;20048;-50
2022/09/12 07:44:08;;;;;;;9.90;5.38;;;;;;;15.50;63.70;99653.16;5072513;28;20040;-50
2022/09/12 07:46:34;;;;;;;9.13;5.47;;;;;;;15.40;63.61;99660.69;5091524;28;20040;-51
2022/09/12 07:49:01;;;;;;;7.60;5.00;;;;;;;15.36;63.26;99661.78;5083662;28;20397;-50
2022/09/12 07:51:28;;;;;;;6.38;4.55;;;;;;;15.33;63.34;99658.50;5069291;28;20040;-53
2022/09/12 07:53:55;;;;;;;10.45;5.05;;;;;;;15.34;62.96;99660.19;5071131;28;20051;-55
2022/09/12 07:56:21;;;;;;;9.18;5.05;;;;;;;15.26;63.42;99653.59;5071257;28;20132;-53
2022/09/12 07:58:47;;;;;;;9.25;5.18;;;;;;;15.24;63.04;99655.44;5070595;28;20510;-54
2022/09/12 08:01:15;;;;;;;16.20;7.13;;;;;;;15.24;63.08;99657.22;5069363;28;20130;-53
2022/09/12 08:03:45;;;;;;;10.85;4.85;;;;;;;15.03;63.09;99624.31;5070791;28;20044;-55
2022/09/12 08:06:18;;;;;;;8.07;4.95;;;;;;;15.26;62.69;99664.06;5059109;28;20573;-53
2022/09/12 08:08:45;;;;;;;7.07;5.10;;;;;;;15.26;62.25;99653.59;5065922;28;20036;-51
2022/09/12 08:11:13;;;;;;;6.88;4.80;;;;;;;15.34;62.29;99658.41;5069682;28;20047;-51
2022/09/12 08:13:40;;;;;;;10.35;5.68;;;;;;;15.35;62.33;99628.66;5068302;28;20630;-49
2022/09/12 08:16:11;;;;;;;12.45;6.95;;;;;;;15.59;61.69;99652.72;5068426;28;20044;-56
2022/09/12 08:18:37;;;;;;;8.52;5.30;;;;;;;15.61;61.31;99656.94;5054201;28;20577;-53
2022/09/12 08:21:05;;;;;;;13.23;7.30;;;;;;;15.63;61.20;99662.09;5065852;28;20040;-53
2022/09/12 08:23:31;;;;;;;8.60;5.00;;;;;;;15.67;60.60;99661.00;5090658;28;20064;-54
2022/09/12 08:26:00;;;;;;;12.27;5.72;;;;;;;15.67;60.23;99658.38;5089052;28;20422;-53
2022/09/12 08:28:26;;;;;;;12.48;7.07;;;;;;;15.70;60.17;99671.31;5080535;28;20051;-53
2022/09/12 08:31:03;;;;;;;8.90;5.47;;;;;;;15.55;60.01;99670.38;5069062;28;20039;-51
2022/09/12 08:33:32;;;;;;;7.50;5.55;;;;;;;15.49;59.50;99670.66;5070172;28;20044;-51
2022/09/12 08:36:11;;;;;;;9.80;6.18;;;;;;;15.05;59.32;99628.56;5070326;28;20047;-53
2022/09/12 08:38:38;;;;;;;13.32;7.03;;;;;;;14.93;60.01;99662.38;5067480;28;20052;-52
2022/09/12 08:41:17;;;;;;;11.10;5.65;;;;;;;14.66;60.34;99669.88;5077160;28;20616;-53
2022/09/12 08:43:57;;;;;;;12.32;6.55;;;;;;;14.49;60.78;99667.31;5050128;28;20036;-53
2022/09/12 08:46:56;;;;;;;11.57;6.63;;;;;;;14.45;60.87;99661.34;5050336;28;20531;-51
2022/09/12 08:49:33;;;;;;;14.00;7.25;;;;;;;14.49;61.22;99664.69;5060985;28;20085;-55
2022/09/12 08:52:04;;;;;;;10.65;7.10;;;;;;;14.58;61.19;99665.06;5068337;28;20036;-48
2022/09/12 08:54:30;;;;;;;16.75;7.10;;;;;;;14.59;61.01;99658.91;5052013;28;20040;-49
2022/09/12 08:57:00;;;;;;;16.85;9.27;;;;;;;14.61;61.11;99656.19;5066765;28;20079;-50
2022/09/12 08:59:35;;;;;;;17.20;10.07;;;;;;;14.79;60.83;99655.25;5056781;28;20051;-54
2022/09/12 09:02:03;;;;;;;15.52;9.10;;;;;;;14.95;60.70;99656.16;5050054;28;20096;-53
2022/09/12 09:04:51;;;;;;;15.75;8.35;;;;;;;14.92;60.52;99634.50;5064806;28;20072;-52
2022/09/12 09:07:37;;;;;;;16.30;9.93;;;;;;;15.19;60.11;99656.59;5073275;28;20040;-55
2022/09/12 09:10:23;;;;;;;19.90;11.45;;;;;;;15.19;59.90;99660.09;5060456;28;20036;-48
2022/09/12 09:12:55;;;;;;;20.40;11.25;;;;;;;15.23;59.88;99658.13;5064827;28;20143;-48
2022/09/12 09:15:23;;;;;;;16.83;10.95;;;;;;;15.16;59.67;99649.78;5064594;28;20049;-53
2022/09/12 09:18:19;;;;;;;20.88;11.23;;;;;;;15.21;59.37;99654.78;5049308;28;20075;-52
2022/09/12 09:20:54;;;;;;;22.23;12.25;;;;;;;15.26;58.97;99655.38;5060376;28;20064;-54
2022/09/12 09:23:26;;;;;;;22.50;11.30;;;;;;;15.49;58.58;99646.25;5062517;28;20041;-54
2022/09/12 09:26:06;;;;;;;20.55;10.57;;;;;;;15.79;58.47;99651.59;5048590;28;20051;-51
2022/09/12 09:28:41;;;;;;;22.30;14.75;;;;;;;15.87;57.81;99647.59;5050236;28;20037;-54
2022/09/12 09:31:18;;;;;;;18.85;10.73;;;;;;;16.03;57.21;99637.94;5049267;28;20037;-52
2022/09/12 09:33:47;;;;;;;14.45;9.13;;;;;;;16.20;57.38;99652.72;5064416;28;20041;-55
2022/09/12 09:36:18;;;;;;;17.15;9.85;;;;;;;16.33;56.60;99640.56;5051712;28;20101;-59
2022/09/12 09:38:48;;;;;;;18.40;10.60;;;;;;;16.49;56.39;99654.47;5065792;28;20044;-57
2022/09/12 09:41:23;;;;;;;15.93;10.18;;;;;;;16.57;55.75;99650.56;5066971;28;20057;-59
2022/09/12 09:43:50;;;;;;;19.42;10.57;;;;;;;16.66;55.13;99655.28;5059597;28;20417;-60
2022/09/12 09:46:16;;;;;;;17.45;10.10;;;;;;;16.70;55.09;99647.13;5068468;28;20044;-61
2022/09/12 09:48:47;;;;;;;18.42;10.60;;;;;;;16.69;55.13;99655.97;5067169;28;20037;-52
2022/09/12 09:51:16;;;;;;;16.65;9.43;;;;;;;16.68;55.15;99656.06;5067041;28;20059;-55
2022/09/12 09:53:45;;;;;;;15.40;9.60;;;;;;;16.71;54.72;99653.22;5050131;28;20159;-52
2022/09/12 09:56:39;;;;;;;17.15;10.15;;;;;;;16.75;54.34;99645.06;5068512;28;20051;-53
2022/09/12 09:59:10;;;;;;;14.27;9.38;;;;;;;16.80;53.97;99647.44;5053787;28;20047;-54
2022/09/12 10:01:37;;;;;;;14.68;9.25;;;;;;;16.87;53.89;99640.88;5068213;28;20150;-54
2022/09/12 10:04:03;;;;;;;17.20;9.38;;;;;;;16.86;53.82;99642.66;5067354;28;20095;-56
2022/09/12 10:06:34;;;;;;;18.55;10.27;;;;;;;16.97;53.16;99649.03;5060271;28;20117;-54
2022/09/12 10:09:12;;;;;;;15.05;9.43;;;;;;;17.18;52.72;99639.81;5072357;28;20051;-54
2022/09/12 10:11:38;;;;;;;19.92;9.40;;;;;;;17.24;52.50;99648.19;5054379;28;20515;-57
2022/09/12 10:14:15;;;;;;;16.60;10.70;;;;;;;17.26;52.16;99638.44;5078131;28;20036;-52
2022/09/12 10:16:51;;;;;;;19.65;10.68;;;;;;;17.21;52.36;99639.66;5066898;28;20044;-52
2022/09/12 10:19:36;;;;;;;17.38;9.88;;;;;;;17.21;52.44;99642.28;5065889;28;20047;-51
2022/09/12 10:22:03;;;;;;;14.75;9.07;;;;;;;17.34;51.88;99645.81;5067616;28;20045;-51
2022/09/12 10:24:34;;;;;;;16.27;10.27;;;;;;;17.52;51.23;99649.94;5065840;28;20033;-54
2022/09/12 10:27:15;;;;;;;17.67;9.38;;;;;;;17.82;50.19;99644.53;5050019;28;20473;-51
2022/09/12 10:29:48;;;;;;;20.75;11.20;;;;;;;18.13;49.41;99646.00;5055615;28;20037;-50
2022/09/12 10:32:39;;;;;;;20.73;10.38;;;;;;;18.33;48.73;99642.03;5046744;28;20045;-51
2022/09/12 10:35:07;;;;;;;15.25;9.07;;;;;;;18.55;48.40;99655.47;5064077;28;20051;-52
2022/09/12 10:37:38;;;;;;;16.98;9.32;;;;;;;18.74;47.82;99653.28;5067764;28;20114;-50
2022/09/12 10:40:06;;;;;;;16.23;9.35;;;;;;;19.04;47.11;99647.72;5067775;28;20041;-50
2022/09/12 10:42:45;;;;;;;21.05;9.48;;;;;;;19.30;46.36;99646.72;5051205;28;20053;-54
2022/09/12 10:45:30;;;;;;;19.65;11.07;;;;;;;19.42;45.96;99639.72;5084913;28;20561;-51
2022/09/12 10:47:58;;;;;;;26.00;15.07;;;;;;;19.41;45.82;99641.53;5070988;28;20143;-52
2022/09/12 10:50:35;;;;;;;14.35;9.07;;;;;;;19.50;45.32;99645.31;5071095;28;20068;-48
2022/09/12 10:53:22;;;;;;;29.23;16.73;;;;;;;19.63;45.03;99640.84;5070783;28;20048;-53
2022/09/12 10:56:02;;;;;;;25.02;14.02;;;;;;;19.68;45.02;99644.00;5067542;28;20051;-50
2022/09/12 10:58:55;;;;;;;16.90;9.77;;;;;;;19.52;44.82;99637.31;5052095;28;20033;-52
2022/09/12 11:01:53;;;;;;;15.25;8.98;;;;;;;19.51;44.82;99633.00;5071600;28;20037;-48
2022/09/12 11:04:45;;;;;;;18.02;9.82;;;;;;;19.65;44.64;99624.91;5045377;28;20045;-53
2022/09/12 11:07:17;;;;;;;17.23;9.80;;;;;;;19.75;44.33;99632.06;5069097;28;20040;-49
2022/09/12 11:09:54;;;;;;;18.27;10.20;;;;;;;19.86;44.03;99634.75;5068321;28;20044;-52
2022/09/12 11:12:42;;;;;;;16.52;8.90;;;;;;;20.08;43.42;99630.53;5067985;28;20044;-52
2022/09/12 11:15:29;;;;;;;16.05;9.10;;;;;;;20.19;43.06;99633.22;5071142;28;20119;-51
2022/09/12 11:18:39;;;;;;;21.40;10.20;;;;;;;20.24;42.86;99631.06;5069771;28;20044;-66
2022/09/12 11:21:14;;;;;;;16.02;9.07;;;;;;;20.05;43.16;99630.75;5053087;28;20593;-56
2022/09/12 11:23:40;;;;;;;20.27;10.10;;;;;;;19.84;43.06;99627.88;5066996;28;20068;-54
2022/09/12 11:26:24;;;;;;;17.77;8.93;;;;;;;19.86;42.92;99620.72;5070582;28;20514;-60
2022/09/12 11:29:03;;;;;;;13.77;8.55;;;;;;;20.36;42.29;99626.72;5062665;28;20045;-59
2022/09/12 11:31:49;;;;;;;;;;;;;;;20.52;42.04;99628.03;5070397;28;20055;-57
2022/09/12 11:34:43;;;;;;;18.40;8.63;;;;;;;20.61;41.70;99631.81;5069276;28;19920;-59
2022/09/12 11:37:32;;;;;;;14.68;8.70;;;;;;;20.64;41.53;99635.03;5070732;28;20041;-53
2022/09/12 11:40:07;;;;;;;15.32;10.23;;;;;;;20.69;41.30;99637.34;5054728;28;20048;-60
2022/09/12 11:42:36;;;;;;;18.50;9.13;;;;;;;20.49;41.09;99625.66;5071227;28;20610;-59
2022/09/12 11:45:12;;;;;;;13.45;8.75;;;;;;;20.24;41.46;99633.72;5062331;28;20033;-59
2022/09/12 11:47:38;;;;;;;18.05;10.75;;;;;;;20.24;41.66;99631.06;5056108;28;20516;-55
2022/09/12 11:50:15;;;;;;;15.15;9.23;;;;;;;20.33;41.69;99622.47;5066497;28;20499;-59